Latest Weather Observations for Birdsville

IDQ60801

Issued at 7:02 pm EST Monday 27 April 2015 (issued every 30 minutes, with the page automatically refreshed every 10 minutes)

About weather observations | Map of weather stations | Latest weather observations for QLD | Other Formats
Station Details ID: 038026 Name: BIRDSVILLE AIRPORT Lat: -25.90 Lon: 139.35 Height: 46.6 m
Data from the previous 72 hours. | See also: Recent months at Birdsville
Date/Time
EST
Temp
°C
App
Temp
°C
Dew
Point
Rel
Hum
%
Delta-T
°C
Wind Press
QNH
hPa
Press
MSL
hPa
Rain
since 9 am
mm
Dir
 
Spd
km/h
Gust
km/h
Spd
kts
Gust
kts
27/07:00pm 19.6 15.2 2.5 32 7.9 SSE 15 19 8 10 1023.1 - 0.0
27/06:30pm 20.2 15.8 2.5 31 8.2 SSE 15 19 8 10 1022.8 - 0.0
27/06:00pm 20.9 15.2 2.7 30 8.5 SSE 22 26 12 14 1022.4 1022.1 0.0
27/05:30pm 21.2 15.4 2.5 29 8.8 S 22 30 12 16 1022.1 - 0.0
27/05:00pm 21.7 16.4 2.9 29 8.9 S 20 28 11 15 1021.9 - 0.0
27/04:30pm 21.8 16.0 2.5 28 9.1 S 22 30 12 16 1022.0 - 0.0
27/04:00pm 22.3 17.0 2.9 28 9.3 S 20 28 11 15 1021.8 - 0.0
27/03:30pm 21.9 16.6 3.1 29 9.0 SSE 20 28 11 15 1021.8 - 0.0
27/03:00pm 22.0 16.7 3.2 29 9.0 S 20 28 11 15 1021.7 1021.5 0.0
27/02:30pm 22.4 17.5 4.0 30 9.0 SSE 19 26 10 14 1021.9 - 0.0
27/02:00pm 21.9 16.9 3.6 30 8.8 S 19 28 10 15 1022.2 - 0.0
27/01:30pm 21.7 17.1 3.9 31 8.6 SSE 17 26 9 14 1022.5 - 0.0
27/01:00pm 21.7 17.7 4.7 33 8.4 SSE 15 24 8 13 1023.0 - 0.0
27/12:30pm 20.8 16.3 4.4 34 8.0 SSE 17 24 9 13 1023.5 - 0.0
27/12:00pm 20.3 16.3 4.8 36 7.5 SE 15 26 8 14 1024.1 1024.1 0.0
27/11:30am 20.7 16.6 6.3 39 7.2 SE 17 28 9 15 1024.7 - 0.0
27/11:00am 19.7 15.1 5.7 40 6.9 SE 19 26 10 14 1024.9 - 0.0
27/10:30am 19.2 14.7 6.3 43 6.4 SE 19 26 10 14 1025.2 - 0.0
27/10:00am 18.3 14.3 6.5 46 5.9 ESE 17 22 9 12 1025.5 - 0.0
27/09:30am 17.3 14.1 6.8 50 5.2 SE 13 17 7 9 1025.4 - 0.0
27/09:00am 15.3 11.9 5.8 53 4.5 SE 13 19 7 10 1025.2 1024.9 0.0
27/08:30am 13.5 9.2 5.4 58 3.8 SE 17 20 9 11 1024.8 - 0.0
27/08:00am 12.2 9.3 4.9 61 3.4 S 9 13 5 7 1024.4 - 0.0
27/07:30am 10.8 8.2 4.3 64 2.9 S 7 9 4 5 1024.0 - 0.0
27/07:00am 11.3 7.7 5.0 65 2.9 S 13 15 7 8 1023.7 - 0.0
27/06:30am 10.9 8.0 4.6 65 2.8 S 9 11 5 6 1023.3 - 0.0
27/06:00am 10.9 8.3 4.4 64 2.9 S 7 9 4 5 1022.9 1022.6 0.0
27/05:30am 11.1 8.6 4.8 65 2.9 S 7 9 4 5 1022.7 - 0.0
27/05:00am 12.1 8.8 4.8 61 3.3 SSE 11 13 6 7 1022.4 - 0.0
27/04:30am 12.4 9.6 5.1 61 3.4 SSE 9 13 5 7 1022.3 - 0.0
27/04:00am 12.7 9.5 4.9 59 3.6 SSE 11 13 6 7 1022.1 - 0.0
27/03:30am 13.1 9.5 5.0 58 3.7 SSE 13 15 7 8 1022.0 - 0.0
27/03:00am 13.6 10.1 5.3 57 3.9 SSE 13 15 7 8 1022.1 1021.9 0.0
27/02:30am 14.0 10.9 5.4 56 4.1 SSE 11 15 6 8 1022.2 - 0.0
27/02:00am 14.0 10.9 5.4 56 4.1 SE 11 13 6 7 1022.0 - 0.0
27/01:30am 14.3 11.1 5.1 54 4.3 SSE 11 15 6 8 1022.1 - 0.0
27/01:00am 14.8 10.8 4.8 51 4.7 SSE 15 17 8 9 1022.7 - 0.0
27/12:30am 15.6 11.3 5.2 50 4.9 S 17 22 9 12 1022.7 - 0.0
27/12:00am 15.6 11.5 4.6 48 5.1 S 15 19 8 10 1022.9 1022.7 0.0
 
Date/Time
EST
Temp
°C
App
Temp
°C
Dew
Point
Rel
Hum
%
Delta-T
°C
Wind Press
QNH
hPa
Press
MSL
hPa
Rain
since 9 am
mm
Dir
 
Spd
km/h
Gust
km/h
Spd
kts
Gust
kts
26/11:30pm 16.1 11.7 4.8 47 5.3 SSE 17 20 9 11 1023.1 - 0.0
26/11:00pm 16.4 12.4 4.8 46 5.5 S 15 17 8 9 1023.1 - 0.0
26/10:30pm 16.7 13.0 4.4 44 5.8 S 13 15 7 8 1023.3 - 0.0
26/10:00pm 17.2 13.5 4.5 43 6.0 S 13 17 7 9 1023.1 - 0.0
26/09:30pm 17.8 14.1 4.4 41 6.4 SSE 13 15 7 8 1022.9 - 0.0
26/09:00pm 18.4 14.6 3.8 38 6.9 S 13 17 7 9 1022.6 1022.3 0.0
26/08:30pm 19.2 15.1 4.2 37 7.2 S 15 19 8 10 1022.3 - 0.0
26/08:00pm 19.4 15.2 4.0 36 7.3 S 15 17 8 9 1022.1 - 0.0
26/07:30pm 19.9 16.0 3.6 34 7.7 S 13 15 7 8 1021.8 - 0.0
26/07:00pm 20.7 16.5 3.9 33 8.1 S 15 19 8 10 1021.5 - 0.0
26/06:30pm 21.4 17.2 4.0 32 8.4 SSE 15 20 8 11 1021.3 - 0.0
26/06:00pm 22.3 17.6 3.4 29 9.1 S 17 20 9 11 1021.0 1020.7 0.0
26/05:30pm 22.6 17.5 3.2 28 9.3 S 19 24 10 13 1020.8 - 0.0
26/05:00pm 22.7 17.0 2.8 27 9.5 SSE 22 28 12 15 1020.7 - 0.0
26/04:30pm 22.9 17.6 1.8 25 9.9 SSE 19 26 10 14 1020.5 - 0.0
26/04:00pm 23.1 18.1 1.4 24 10.1 SSE 17 24 9 13 1020.7 - 0.0
26/03:30pm 22.5 17.9 1.5 25 9.8 SSE 15 26 8 14 1020.8 - 0.0
26/03:00pm 22.6 18.0 1.6 25 9.8 SSE 15 24 8 13 1020.8 1020.6 0.0
26/02:30pm 22.3 17.4 1.9 26 9.5 SE 17 24 9 13 1021.0 - 0.0
26/02:00pm 22.4 17.9 2.0 26 9.6 S 15 26 8 14 1021.2 - 0.0
26/01:30pm 21.8 18.0 2.0 27 9.2 ESE 11 20 6 11 1021.7 - 0.0
26/01:00pm 21.9 17.4 2.1 27 9.3 SSE 15 22 8 12 1022.1 - 0.0
26/12:30pm 20.6 16.0 1.5 28 8.8 S 15 20 8 11 1022.7 - 0.0
26/12:00pm 20.7 16.6 2.0 29 8.6 SE 13 20 7 11 1023.0 1022.9 0.0
26/11:30am 20.3 15.4 1.7 29 8.5 SE 17 26 9 14 1023.1 - 0.0
26/11:00am 19.7 15.4 1.2 29 8.4 ESE 13 19 7 10 1023.3 - 0.0
26/10:30am 18.7 15.0 2.5 34 7.5 SE 11 15 6 8 1023.7 - 0.0
26/10:00am 17.2 13.5 4.2 42 6.1 SSE 13 17 7 9 1024.0 - 0.0
26/09:30am 15.7 12.1 5.0 49 5.1 S 13 15 7 8 1024.0 - 0.0
26/09:00am 14.4 11.3 5.5 55 4.2 S 11 15 6 8 1023.8 1023.5 0.0
26/08:30am 12.7 9.4 4.7 58 3.7 SSW 11 13 6 7 1023.3 - 0.0
26/08:00am 11.4 8.5 4.4 62 3.2 SW 9 9 5 5 1022.8 - 0.0
26/07:30am 10.5 7.2 4.4 66 2.7 SW 11 11 6 6 1022.4 - 0.0
26/07:00am 9.6 6.6 4.2 69 2.4 SW 9 11 5 6 1021.9 - 0.0
26/06:30am 9.2 6.0 3.0 65 2.7 SW 9 11 5 6 1021.4 - 0.0
26/06:00am 9.8 6.3 3.3 64 2.8 SW 11 11 6 6 1021.1 1020.8 0.0
26/05:30am 10.8 7.5 4.3 64 2.9 SW 11 11 6 6 1020.8 - 0.0
26/05:00am 11.5 8.3 4.9 64 3.0 WSW 11 13 6 7 1020.5 - 0.0
26/04:30am 11.6 8.3 4.6 62 3.2 WSW 11 13 6 7 1020.5 - 0.0
26/04:00am 11.8 8.5 4.5 61 3.3 WSW 11 13 6 7 1020.2 - 0.0
26/03:30am 12.2 8.9 4.4 59 3.5 WSW 11 13 6 7 1020.1 - 0.0
26/03:00am 12.7 9.4 4.7 58 3.7 WSW 11 13 6 7 1019.9 1019.7 0.0
26/02:30am 13.1 9.5 4.8 57 3.8 WSW 13 15 7 8 1020.0 - 0.0
26/02:00am 13.6 9.6 4.7 55 4.1 WSW 15 17 8 9 1019.9 - 0.0
26/01:30am 13.7 9.6 4.6 54 4.2 WSW 15 17 8 9 1019.8 - 0.0
26/01:00am 13.8 10.1 4.4 53 4.3 WSW 13 15 7 8 1020.0 - 0.0
26/12:30am 14.2 10.5 4.5 52 4.5 SW 13 17 7 9 1020.2 - 0.0
26/12:00am 14.7 10.6 4.4 50 4.8 WSW 15 17 8 9 1020.4 1020.1 0.0
 
Date/Time
EST
Temp
°C
App
Temp
°C
Dew
Point
Rel
Hum
%
Delta-T
°C
Wind Press
QNH
hPa
Press
MSL
hPa
Rain
since 9 am
mm
Dir
 
Spd
km/h
Gust
km/h
Spd
kts
Gust
kts
25/11:30pm 15.3 11.3 4.7 49 5.0 WSW 15 17 8 9 1020.4 - 0.0
25/11:00pm 15.7 11.7 4.7 48 5.2 WSW 15 17 8 9 1020.4 - 0.0
25/10:30pm 15.8 12.1 4.5 47 5.3 WSW 13 17 7 9 1020.5 - 0.0
25/10:00pm 15.9 12.1 4.0 45 5.5 SW 13 13 7 7 1020.5 - 0.0
25/09:30pm 16.0 12.2 3.8 44 5.6 SW 13 15 7 8 1020.3 - 0.0
25/09:00pm 16.1 12.1 2.9 41 6.0 SW 13 13 7 7 1020.0 1019.8 0.0
25/08:30pm 16.7 12.7 2.7 39 6.4 SW 13 15 7 8 1019.6 - 0.0
25/08:00pm 17.5 13.5 3.0 38 6.7 SW 13 15 7 8 1019.2 - 0.0
25/07:30pm 18.3 14.0 3.0 36 7.1 SW 15 17 8 9 1018.7 - 0.0
25/07:00pm 19.0 14.2 2.8 34 7.5 SW 17 20 9 11 1018.3 - 0.0
25/06:30pm 19.7 14.4 3.0 33 7.8 SW 20 26 11 14 1018.0 - 0.0
25/06:00pm 20.5 13.7 3.3 32 8.1 SW 28 33 15 18 1017.9 1017.6 0.0
25/05:30pm 21.1 14.3 3.3 31 8.5 SW 28 35 15 19 1017.5 - 0.0
25/05:00pm 21.3 13.7 3.0 30 8.7 SW 32 41 17 22 1017.2 - 0.0
25/04:30pm 21.7 15.2 2.9 29 8.9 SW 26 39 14 21 1017.2 - 0.0
25/04:00pm 21.4 14.1 2.2 28 9.0 SSW 30 43 16 23 1016.8 - 0.0
25/03:30pm 21.7 14.7 1.9 27 9.2 SSW 28 37 15 20 1017.0 - 0.0
25/03:00pm 21.3 14.4 2.6 29 8.8 SW 28 41 15 22 1017.3 1017.2 0.0
25/02:45pm 21.7 14.8 2.4 28 9.1 SW 28 46 15 25 1017.5 - 0.0
25/02:30pm 21.0 14.4 2.3 29 8.7 SW 26 39 14 21 1017.6 - 0.0
25/02:00pm 21.0 14.1 2.3 29 8.7 SW 28 37 15 20 1018.0 - 0.0
25/01:30pm 20.7 13.3 2.0 29 8.7 SW 30 41 16 22 1018.2 - 0.0
25/01:00pm 20.6 13.6 2.0 29 8.6 SW 28 39 15 21 1018.5 - 0.0
25/12:30pm 20.0 13.0 1.9 30 8.3 SSW 28 39 15 21 1019.1 - 0.0
25/12:00pm 19.3 11.9 1.8 31 8.0 SW 30 39 16 21 1019.4 1019.2 0.0
25/11:30am 18.9 11.3 2.7 34 7.5 SW 32 39 17 21 1019.9 - 0.0
25/11:00am 18.1 10.9 2.8 36 7.1 SW 30 39 16 21 1020.1 - 0.0
25/10:30am 17.1 10.0 3.4 40 6.3 SW 30 39 16 21 1020.2 - 0.0
25/10:00am 16.3 8.7 3.0 41 6.1 SW 32 37 17 20 1020.1 - 0.0
25/09:30am 15.9 8.4 3.4 43 5.7 SW 32 39 17 21 1020.0 - 0.0
25/09:00am 15.3 8.6 3.5 45 5.4 SW 28 35 15 19 1019.9 1019.7 0.0
25/08:30am 14.6 8.6 3.4 47 5.1 SW 24 32 13 17 1019.6 - 0.0
25/08:00am 13.6 8.4 3.4 50 4.6 SSW 20 26 11 14 1019.2 - 0.0
25/07:30am 12.1 7.7 2.8 53 4.1 SW 15 20 8 11 1018.6 - 0.0
25/07:00am 11.9 7.1 2.4 52 4.1 SW 17 19 9 10 1018.1 - 0.0
25/06:30am 12.2 7.7 2.4 51 4.3 SSW 15 17 8 9 1017.7 - 0.0
25/06:00am 13.3 8.5 2.8 49 4.6 SSW 17 20 9 11 1017.3 1017.1 0.0
25/05:30am 13.1 8.7 2.9 50 4.5 SSW 15 17 8 9 1017.0 - 0.0
25/05:00am 13.8 9.2 3.6 50 4.6 SSW 17 20 9 11 1016.6 - 0.0
25/04:30am 14.6 9.5 4.0 49 4.9 SSW 20 24 11 13 1016.4 - 0.0
25/04:00am 15.0 10.0 4.4 49 4.9 SSW 20 24 11 13 1016.3 - 0.0
25/03:30am 16.0 9.9 4.7 47 5.3 SSW 26 33 14 18 1016.1 - 0.0
25/03:00am 15.7 11.0 5.0 49 5.1 SSW 19 28 10 15 1016.0 1015.9 0.0
25/02:30am 15.4 10.5 4.2 47 5.2 SSW 19 20 10 11 1015.8 - 0.0
25/02:00am 14.9 10.8 2.4 43 5.6 SW 13 17 7 9 1015.8 - 0.0
25/01:30am 15.2 11.0 1.7 40 5.9 SW 13 15 7 8 1015.6 - 0.0
25/01:00am 15.7 11.3 0.3 35 6.6 SW 13 15 7 8 1015.5 - 0.0
25/12:30am 16.7 11.5 0.4 33 7.1 SW 17 20 9 11 1015.4 - 0.0
25/12:00am 18.1 13.5 1.6 33 7.4 WSW 15 17 8 9 1015.3 1015.2 0.0
 
Date/Time
EST
Temp
°C
App
Temp
°C
Dew
Point
Rel
Hum
%
Delta-T
°C
Wind Press
QNH
hPa
Press
MSL
hPa
Rain
since 9 am
mm
Dir
 
Spd
km/h
Gust
km/h
Spd
kts
Gust
kts
24/11:30pm 17.7 13.8 1.2 33 7.3 WSW 11 13 6 7 1015.2 - 0.0
24/11:00pm 18.1 14.2 1.2 32 7.5 WSW 11 13 6 7 1015.1 - 0.0
24/10:30pm 18.6 15.1 1.2 31 7.8 WSW 9 13 5 7 1015.2 - 0.0
24/10:00pm 19.4 15.5 1.4 30 8.2 WSW 11 11 6 6 1015.1 - 0.0
24/09:30pm 19.9 16.0 0.9 28 8.6 WSW 11 15 6 8 1015.0 - 0.0
24/09:00pm 20.3 15.9 0.2 26 8.9 WSW 13 15 7 8 1014.9 1014.6 0.0
24/08:30pm 20.4 16.0 0.3 26 9.0 SW 13 15 7 8 1014.5 - 0.0
24/08:00pm 20.8 16.3 -0.5 24 9.4 SW 13 15 7 8 1014.1 - 0.0
24/07:30pm 21.8 17.3 -0.2 23 9.8 SW 13 15 7 8 1013.7 - 0.0

Other Formats:

Comma delimited format used in spreadsheet applications
http://www.bom.gov.au/fwo/IDQ60801/IDQ60801.95482.axf

JavaScript Object Notation format (JSON) in row-major order
http://www.bom.gov.au/fwo/IDQ60801/IDQ60801.95482.json